createdAt,value
2019-03-28T00:01:55.722Z,95700.98
2019-03-28T00:04:25.708Z,95697.42
2019-03-28T00:06:55.735Z,95699.88
2019-03-28T00:09:25.808Z,95703.84
2019-03-28T00:11:55.834Z,95705.42
2019-03-28T00:14:25.879Z,95698.58
2019-03-28T00:16:57.675Z,95703.70
2019-03-28T00:19:27.752Z,95701.98
2019-03-28T00:21:57.840Z,95703.10
2019-03-28T00:24:38.149Z,95702.28
2019-03-28T00:27:08.258Z,95697.06
2019-03-28T00:29:38.272Z,95695.27
2019-03-28T00:32:08.318Z,95691.03
2019-03-28T00:34:38.378Z,95687.50
2019-03-28T00:37:09.038Z,95688.45
2019-03-28T00:39:39.299Z,95690.78
2019-03-28T00:42:09.336Z,95694.89
2019-03-28T00:44:39.363Z,95692.83
2019-03-28T00:47:09.342Z,95684.69
2019-03-28T00:49:39.441Z,95683.94
2019-03-28T00:52:09.478Z,95685.07
2019-03-28T00:54:39.524Z,95684.95
2019-03-28T00:57:09.624Z,95688.85
2019-03-28T00:59:39.645Z,95686.45
2019-03-28T01:02:09.634Z,95687.21
2019-03-28T01:04:39.664Z,95690.16
2019-03-28T01:07:09.690Z,95690.85
2019-03-28T01:09:39.709Z,95687.97
2019-03-28T01:12:09.753Z,95689.46
2019-03-28T01:14:39.828Z,95691.24
2019-03-28T01:17:09.823Z,95689.41
2019-03-28T01:19:39.871Z,95691.19
2019-03-28T01:22:09.960Z,95686.87
2019-03-28T01:24:40.002Z,95687.13
2019-03-28T01:27:10.074Z,95688.16
2019-03-28T01:29:40.157Z,95685.72
2019-03-28T01:32:10.163Z,95687.21
2019-03-28T01:34:40.181Z,95682.88
2019-03-28T01:37:10.189Z,95682.70
2019-03-28T01:39:40.217Z,95685.63
2019-03-28T01:42:10.261Z,95684.97
2019-03-28T01:44:40.309Z,95678.81
2019-03-28T01:47:10.294Z,95680.11
2019-03-28T01:49:40.417Z,95675.87
2019-03-28T01:52:10.481Z,95679.34
2019-03-28T01:54:40.502Z,95674.96
2019-03-28T01:57:11.563Z,95675.30
2019-03-28T01:59:42.276Z,95683.94
2019-03-28T02:02:12.304Z,95685.56
2019-03-28T02:04:42.334Z,95690.92
2019-03-28T02:07:12.351Z,95691.75
2019-03-28T02:09:42.360Z,95689.71
2019-03-28T02:12:12.405Z,95688.66
2019-03-28T02:14:42.434Z,95694.19
2019-03-28T02:17:12.463Z,95695.09
2019-03-28T02:19:42.527Z,95700.92
2019-03-28T02:22:12.597Z,95700.48
2019-03-28T02:24:42.625Z,95693.30
2019-03-28T02:27:23.511Z,95693.97
2019-03-28T02:29:44.433Z,95704.66
2019-03-28T02:32:14.427Z,95698.75
2019-03-28T02:34:48.651Z,95698.33
2019-03-28T02:37:16.255Z,95702.53
2019-03-28T02:39:46.399Z,95708.19
2019-03-28T02:42:16.405Z,95699.53
2019-03-28T02:44:46.431Z,95701.05
2019-03-28T02:47:16.443Z,95700.57
2019-03-28T02:49:46.513Z,95701.05
2019-03-28T02:52:16.570Z,95700.61
2019-03-28T02:54:46.615Z,95705.66
2019-03-28T02:57:16.702Z,95703.38
2019-03-28T02:59:46.728Z,95706.76
2019-03-28T03:02:16.757Z,95705.90
2019-03-28T03:04:46.877Z,95706.72
2019-03-28T03:07:16.943Z,95707.20
2019-03-28T03:09:46.964Z,95709.59
2019-03-28T03:12:17.026Z,95707.91
2019-03-28T03:14:47.057Z,95706.55
2019-03-28T03:17:17.100Z,95713.65
2019-03-28T03:19:47.195Z,95715.77
2019-03-28T03:22:17.254Z,95713.95
2019-03-28T03:24:47.343Z,95709.95
2019-03-28T03:27:17.372Z,95714.50
2019-03-28T03:29:47.453Z,95716.48
2019-03-28T03:32:17.524Z,95718.55
2019-03-28T03:34:47.651Z,95723.27
2019-03-28T03:37:17.751Z,95720.47
2019-03-28T03:39:47.810Z,95724.02
2019-03-28T03:42:17.805Z,95729.57
2019-03-28T03:44:47.896Z,95730.73
2019-03-28T03:47:18.081Z,95729.91
2019-03-28T03:49:48.198Z,95737.56
2019-03-28T03:52:18.235Z,95738.70
2019-03-28T03:54:48.279Z,95741.78
2019-03-28T03:57:18.275Z,95750.41
2019-03-28T03:59:48.303Z,95746.38
2019-03-28T04:02:18.366Z,95751.86
2019-03-28T04:04:48.412Z,95758.14
2019-03-28T04:07:18.530Z,95752.69
2019-03-28T04:09:48.576Z,95758.73
2019-03-28T04:12:18.690Z,95758.20
2019-03-28T04:14:48.742Z,95762.02
2019-03-28T04:17:18.780Z,95768.81
2019-03-28T04:19:48.795Z,95771.89
2019-03-28T04:22:18.803Z,95774.48
2019-03-28T04:24:48.853Z,95771.77
2019-03-28T04:27:18.856Z,95774.36
2019-03-28T04:29:48.946Z,95778.47
2019-03-28T04:32:18.996Z,95775.93
2019-03-28T04:34:49.063Z,95780.04
2019-03-28T04:37:19.132Z,95784.61
2019-03-28T04:39:49.162Z,95778.47
2019-03-28T04:42:19.169Z,95783.11
2019-03-28T04:44:49.237Z,95784.19
2019-03-28T04:47:19.253Z,95776.48
2019-03-28T04:49:49.437Z,95779.55
2019-03-28T04:52:19.599Z,95781.80
2019-03-28T04:54:50.555Z,95782.69
2019-03-28T04:57:20.567Z,95785.73
2019-03-28T04:59:50.586Z,95784.34
2019-03-28T05:02:20.705Z,95784.91
2019-03-28T05:04:50.761Z,95787.25
2019-03-28T05:07:20.836Z,95790.64
2019-03-28T05:09:50.844Z,95797.62
2019-03-28T05:12:20.859Z,95799.51
2019-03-28T05:14:50.927Z,95797.86
2019-03-28T05:17:20.986Z,95789.33
2019-03-28T05:19:50.991Z,95791.92
2019-03-28T05:22:21.046Z,95791.87
2019-03-28T05:24:51.095Z,95790.45
2019-03-28T05:27:21.144Z,95783.40
2019-03-28T05:29:51.168Z,95784.95
2019-03-28T05:32:22.234Z,95782.30
2019-03-28T05:34:52.316Z,95780.58
2019-03-28T05:37:22.368Z,95781.45
2019-03-28T05:39:52.396Z,95791.06
2019-03-28T05:42:22.445Z,95778.98
2019-03-28T05:44:52.487Z,95783.56
2019-03-28T05:47:22.501Z,95788.25
2019-03-28T05:49:52.640Z,95783.53
2019-03-28T05:52:22.701Z,95792.09
2019-03-28T05:54:52.725Z,95790.46
2019-03-28T05:57:22.759Z,95794.64
2019-03-28T05:59:52.795Z,95795.42
2019-03-28T06:02:23.013Z,95791.10
2019-03-28T06:04:53.157Z,95796.18
2019-03-28T06:07:23.165Z,95794.52
2019-03-28T06:09:53.162Z,95791.95
2019-03-28T06:12:23.230Z,95787.70
2019-03-28T06:14:53.211Z,95790.91
2019-03-28T06:17:23.352Z,95788.13
2019-03-28T06:19:53.554Z,95795.33
2019-03-28T06:22:23.656Z,95793.95
2019-03-28T06:24:53.718Z,95795.66
2019-03-28T06:27:23.788Z,95794.36
2019-03-28T06:29:53.806Z,95799.45
2019-03-28T06:32:23.927Z,95803.34
2019-03-28T06:34:56.717Z,95806.34
2019-03-28T06:37:28.395Z,95809.51
2019-03-28T06:39:58.468Z,95803.97
2019-03-28T06:42:28.566Z,95815.07
2019-03-28T06:45:03.524Z,95819.44
2019-03-28T06:47:33.049Z,95829.95
2019-03-28T06:50:03.161Z,95825.80
2019-03-28T06:52:33.209Z,95821.74
2019-03-28T06:55:04.114Z,95821.80
2019-03-28T06:57:34.200Z,95816.73
2019-03-28T07:00:04.840Z,95814.22
2019-03-28T07:02:34.888Z,95821.06
2019-03-28T07:05:04.910Z,95820.83
2019-03-28T07:07:35.023Z,95818.70
2019-03-28T07:10:15.077Z,95827.89
2019-03-28T07:12:45.095Z,95824.50
2019-03-28T07:15:15.333Z,95825.56
2019-03-28T07:17:49.113Z,95825.69
2019-03-28T07:20:19.200Z,95833.44
2019-03-28T07:22:49.352Z,95840.67
2019-03-28T07:25:19.407Z,95836.47
2019-03-28T07:27:49.483Z,95834.05
2019-03-28T07:30:19.891Z,95835.12
2019-03-28T07:32:49.957Z,95838.73
2019-03-28T07:35:20.336Z,95824.98
2019-03-28T07:37:50.388Z,95836.02
2019-03-28T07:40:20.416Z,95832.55
2019-03-28T07:42:50.569Z,95837.63
2019-03-28T07:45:20.671Z,95834.91
2019-03-28T07:47:51.414Z,95837.25
2019-03-28T07:50:21.576Z,95837.01
2019-03-28T07:52:51.646Z,95835.12
2019-03-28T07:55:21.723Z,95831.59
2019-03-28T07:57:51.724Z,95840.61
2019-03-28T08:00:21.873Z,95842.23
2019-03-28T08:02:51.901Z,95843.92
2019-03-28T08:05:22.131Z,95844.95
2019-03-28T08:07:52.144Z,95843.97
2019-03-28T08:10:22.143Z,95840.89
2019-03-28T08:12:52.177Z,95841.61
2019-03-28T08:15:22.201Z,95842.92
2019-03-28T08:17:52.295Z,95845.03
2019-03-28T08:20:22.443Z,95840.94
2019-03-28T08:22:52.479Z,95832.16
2019-03-28T08:25:22.518Z,95838.00
2019-03-28T08:27:52.582Z,95837.67
2019-03-28T08:30:34.085Z,95835.09
2019-03-28T08:33:04.709Z,95835.27
2019-03-28T08:35:35.761Z,95834.75
2019-03-28T08:38:09.703Z,95836.80
2019-03-28T08:40:40.278Z,95831.42
2019-03-28T08:43:10.510Z,95832.63
2019-03-28T08:45:40.583Z,95832.80
2019-03-28T08:48:10.632Z,95825.13
2019-03-28T08:50:40.642Z,95835.10
2019-03-28T08:53:10.666Z,95830.03
2019-03-28T08:55:41.068Z,95829.39
2019-03-28T08:58:11.084Z,95830.70
2019-03-28T09:03:28.902Z,95833.78
2019-03-28T09:05:58.966Z,95831.80
2019-03-28T09:08:29.041Z,95828.53
2019-03-28T09:10:59.044Z,95828.88
2019-03-28T09:16:17.127Z,95830.50
2019-03-28T09:21:35.142Z,95833.52
2019-03-28T09:24:05.223Z,95828.28
2019-03-28T09:26:35.314Z,95828.37
2019-03-28T09:29:05.376Z,95828.09
2019-03-28T09:31:35.414Z,95826.09
2019-03-28T09:34:05.431Z,95823.96
2019-03-28T09:36:35.518Z,95830.98
2019-03-28T09:39:07.607Z,95826.09
2019-03-28T09:41:37.658Z,95817.61
2019-03-28T09:44:07.721Z,95817.95
2019-03-28T09:46:37.720Z,95826.09
2019-03-28T09:49:07.740Z,95820.53
2019-03-28T09:51:37.884Z,95817.78
2019-03-28T09:54:07.921Z,95811.41
2019-03-28T09:56:37.941Z,95812.56
2019-03-28T09:59:07.970Z,95816.48
2019-03-28T10:01:38.025Z,95814.53
2019-03-28T10:04:08.079Z,95804.55
2019-03-28T10:06:38.122Z,95808.48
2019-03-28T10:09:08.950Z,95808.14
2019-03-28T10:11:39.038Z,95805.19
2019-03-28T10:14:09.172Z,95804.02
2019-03-28T10:16:40.435Z,95797.78
2019-03-28T10:19:10.557Z,95797.26
2019-03-28T10:21:40.606Z,95800.06
2019-03-28T10:24:11.569Z,95791.66
2019-03-28T10:26:41.819Z,95783.16
2019-03-28T10:29:11.884Z,95789.08
2019-03-28T10:31:41.916Z,95793.33
2019-03-28T10:34:11.949Z,95780.73
2019-03-28T10:36:42.100Z,95775.92
2019-03-28T10:39:12.156Z,95769.61
2019-03-28T10:41:42.187Z,95768.55
2019-03-28T10:44:12.253Z,95777.95
2019-03-28T10:46:42.440Z,95767.39
2019-03-28T10:49:12.541Z,95758.75
2019-03-28T10:51:42.642Z,95764.61
2019-03-28T10:54:20.139Z,95757.05
2019-03-28T10:56:51.871Z,95758.70
2019-03-28T10:59:23.320Z,95750.52
2019-03-28T11:01:50.723Z,95752.28
2019-03-28T11:04:19.981Z,95746.63
2019-03-28T11:06:51.164Z,95747.98
2019-03-28T11:09:21.170Z,95748.16
2019-03-28T11:11:51.169Z,95747.69
2019-03-28T11:14:21.198Z,95735.16
2019-03-28T11:16:51.293Z,95731.33
2019-03-28T11:19:21.309Z,95739.06
2019-03-28T11:21:51.375Z,95731.70
2019-03-28T11:24:21.422Z,95731.55
2019-03-28T11:26:51.423Z,95727.63
2019-03-28T11:29:21.474Z,95723.60
2019-03-28T11:31:52.715Z,95725.66
2019-03-28T11:34:22.955Z,95721.72
2019-03-28T11:36:53.120Z,95722.96
2019-03-28T11:39:23.166Z,95713.83
2019-03-28T11:41:53.156Z,95702.14
2019-03-28T11:44:23.212Z,95704.48
2019-03-28T11:46:53.262Z,95703.20
2019-03-28T11:49:23.303Z,95692.20
2019-03-28T11:51:53.323Z,95686.41
2019-03-28T11:54:23.364Z,95685.03
2019-03-28T11:56:53.360Z,95693.06
2019-03-28T11:59:23.401Z,95693.46
2019-03-28T12:01:59.926Z,95693.28
2019-03-28T12:04:25.182Z,95692.88
2019-03-28T12:06:55.225Z,95687.61
2019-03-28T12:09:25.347Z,95684.00
2019-03-28T12:11:55.449Z,95683.53
2019-03-28T12:14:25.546Z,95676.72
2019-03-28T12:16:55.543Z,95682.18
2019-03-28T12:19:25.617Z,95668.02
2019-03-28T12:21:55.589Z,95665.48
2019-03-28T12:24:25.622Z,95667.38
2019-03-28T12:26:55.657Z,95658.63
2019-03-28T12:29:25.767Z,95661.38
2019-03-28T12:31:55.827Z,95660.16
2019-03-28T12:34:25.859Z,95661.45
2019-03-28T12:36:55.861Z,95653.14
2019-03-28T12:39:25.894Z,95651.48
2019-03-28T12:41:56.038Z,95650.38
2019-03-28T12:44:26.073Z,95649.73
2019-03-28T12:46:56.101Z,95646.20
2019-03-28T12:49:26.163Z,95638.98
2019-03-28T12:51:56.189Z,95631.16
2019-03-28T12:54:26.194Z,95633.09
2019-03-28T12:56:58.172Z,95625.98
2019-03-28T12:59:28.050Z,95618.03
2019-03-28T13:01:58.072Z,95632.31
2019-03-28T13:04:28.119Z,95619.31
2019-03-28T13:06:58.258Z,95608.09
2019-03-28T13:09:28.373Z,95604.72
2019-03-28T13:11:58.440Z,95611.37
2019-03-28T13:14:31.161Z,95603.20
2019-03-28T13:17:00.261Z,95599.91
2019-03-28T13:19:30.297Z,95599.19
2019-03-28T13:22:00.367Z,95591.50
2019-03-28T13:24:30.394Z,95599.37
2019-03-28T13:27:00.407Z,95601.08
2019-03-28T13:29:30.447Z,95597.81
2019-03-28T13:32:00.490Z,95606.31
2019-03-28T13:34:30.562Z,95592.28
2019-03-28T13:37:00.598Z,95590.74
2019-03-28T13:39:30.650Z,95580.62
2019-03-28T13:42:00.673Z,95582.69
2019-03-28T13:44:30.693Z,95586.11
2019-03-28T13:47:00.761Z,95581.55
2019-03-28T13:49:30.787Z,95591.95
2019-03-28T13:52:00.819Z,95590.19
2019-03-28T13:54:30.883Z,95593.05
2019-03-28T13:57:00.970Z,95586.14
2019-03-28T13:59:33.771Z,95592.45
2019-03-28T14:02:02.912Z,95593.77
2019-03-28T14:04:32.955Z,95588.42
2019-03-28T14:07:02.969Z,95589.45
2019-03-28T14:09:33.042Z,95580.44
2019-03-28T14:12:03.059Z,95577.88
2019-03-28T14:14:33.152Z,95577.98
2019-03-28T14:17:03.221Z,95579.89
2019-03-28T14:19:33.273Z,95578.20
2019-03-28T14:22:03.338Z,95584.50
2019-03-28T14:24:33.379Z,95583.36
2019-03-28T14:27:03.513Z,95580.37
2019-03-28T14:29:33.570Z,95587.55
2019-03-28T14:32:03.635Z,95580.01
2019-03-28T14:34:33.709Z,95577.92
2019-03-28T14:37:03.827Z,95584.84
2019-03-28T14:39:33.948Z,95577.00
2019-03-28T14:42:04.035Z,95570.12
2019-03-28T14:44:34.106Z,95559.85
2019-03-28T14:47:04.153Z,95573.33
2019-03-28T14:49:34.296Z,95569.84
2019-03-28T14:52:05.058Z,95563.22
2019-03-28T14:54:35.124Z,95568.65
2019-03-28T14:57:05.765Z,95576.57
2019-03-28T14:59:37.773Z,95576.19
2019-03-28T15:02:07.795Z,95579.05
2019-03-28T15:04:37.840Z,95578.48
2019-03-28T15:07:07.879Z,95577.17
2019-03-28T15:09:37.953Z,95569.59
2019-03-28T15:12:08.004Z,95567.78
2019-03-28T15:14:38.070Z,95574.02
2019-03-28T15:17:08.092Z,95578.70
2019-03-28T15:19:38.166Z,95579.52
2019-03-28T15:22:08.233Z,95574.80
2019-03-28T15:24:38.320Z,95586.42
2019-03-28T15:27:08.416Z,95577.56
2019-03-28T15:29:38.437Z,95581.50
2019-03-28T15:32:08.472Z,95592.48
2019-03-28T15:34:38.492Z,95591.14
2019-03-28T15:37:08.548Z,95596.45
2019-03-28T15:39:38.667Z,95591.26
2019-03-28T15:42:08.743Z,95586.38
2019-03-28T15:44:39.519Z,95589.95
2019-03-28T15:47:09.690Z,95594.55
2019-03-28T15:49:39.748Z,95591.47
2019-03-28T15:52:09.787Z,95595.28
2019-03-28T15:54:39.897Z,95599.28
2019-03-28T15:57:09.966Z,95606.65
2019-03-28T15:59:40.036Z,95605.95
2019-03-28T16:02:10.086Z,95613.96
2019-03-28T16:04:40.104Z,95618.06
2019-03-28T16:07:10.133Z,95620.84
2019-03-28T16:09:40.168Z,95617.73
2019-03-28T16:12:10.207Z,95617.94
2019-03-28T16:14:40.222Z,95615.98
2019-03-28T16:17:10.406Z,95617.13
2019-03-28T16:19:40.461Z,95621.28
2019-03-28T16:22:11.626Z,95620.31
2019-03-28T16:24:42.046Z,95624.56
2019-03-28T16:27:12.092Z,95618.20
2019-03-28T16:29:42.201Z,95618.47
2019-03-28T16:32:12.214Z,95626.67
2019-03-28T16:34:43.629Z,95616.52
2019-03-28T16:37:13.736Z,95620.61
2019-03-28T16:39:43.742Z,95615.85
2019-03-28T16:42:13.781Z,95622.41
2019-03-28T16:44:44.044Z,95623.73
2019-03-28T16:47:14.080Z,95633.91
2019-03-28T16:49:44.123Z,95634.26
2019-03-28T16:52:14.161Z,95630.01
2019-03-28T16:54:44.297Z,95628.38
2019-03-28T16:57:14.397Z,95634.42
2019-03-28T16:59:44.456Z,95630.50
2019-03-28T17:02:14.501Z,95636.93
2019-03-28T17:04:44.597Z,95635.34
2019-03-28T17:07:15.903Z,95636.66
2019-03-28T17:09:46.521Z,95640.13
2019-03-28T17:12:16.548Z,95639.47
2019-03-28T17:14:46.559Z,95644.06
2019-03-28T17:17:16.590Z,95639.36
2019-03-28T17:19:46.672Z,95643.97
2019-03-28T17:22:18.503Z,95649.70
2019-03-28T17:24:48.624Z,95652.31
2019-03-28T17:27:18.718Z,95656.60
2019-03-28T17:29:48.922Z,95658.56
2019-03-28T17:32:19.303Z,95664.45
2019-03-28T17:34:49.438Z,95667.39
2019-03-28T17:37:19.533Z,95664.61
2019-03-28T17:39:49.585Z,95673.47
2019-03-28T17:42:19.687Z,95672.48
2019-03-28T17:44:49.784Z,95672.52
2019-03-28T17:47:19.879Z,95677.74
2019-03-28T17:49:49.964Z,95679.08
2019-03-28T17:52:19.981Z,95678.75
2019-03-28T17:54:53.006Z,95683.64
2019-03-28T17:57:23.051Z,95686.44
2019-03-28T17:59:53.146Z,95682.34
2019-03-28T18:02:23.180Z,95680.68
2019-03-28T18:04:53.235Z,95690.52
2019-03-28T18:07:23.288Z,95695.41
2019-03-28T18:09:53.383Z,95703.44
2019-03-28T18:12:23.650Z,95707.52
2019-03-28T18:14:53.746Z,95708.35
2019-03-28T18:17:23.802Z,95711.45
2019-03-28T18:19:53.980Z,95709.83
2019-03-28T18:22:24.025Z,95714.23
2019-03-28T18:24:54.073Z,95717.50
2019-03-28T18:27:24.357Z,95721.59
2019-03-28T18:29:54.428Z,95722.56
2019-03-28T18:32:24.574Z,95718.33
2019-03-28T18:35:05.324Z,95719.30
2019-03-28T18:37:26.458Z,95722.89
2019-03-28T18:39:56.555Z,95722.23
2019-03-28T18:42:26.590Z,95730.08
2019-03-28T18:44:56.634Z,95722.91
2019-03-28T18:47:26.716Z,95727.29
2019-03-28T18:49:56.965Z,95725.67
2019-03-28T18:52:27.071Z,95727.63
2019-03-28T18:54:57.118Z,95724.20
2019-03-28T18:57:27.114Z,95726.49
2019-03-28T18:59:57.316Z,95731.70
2019-03-28T19:02:30.446Z,95734.33
2019-03-28T19:05:00.505Z,95731.55
2019-03-28T19:07:30.580Z,95728.94
2019-03-28T19:10:00.704Z,95735.64
2019-03-28T19:12:30.778Z,95734.99
2019-03-28T19:15:00.867Z,95747.70
2019-03-28T19:17:30.916Z,95740.81
2019-03-28T19:20:00.943Z,95741.95
2019-03-28T19:22:30.982Z,95742.59
2019-03-28T19:25:01.038Z,95741.13
2019-03-28T19:27:31.084Z,95740.45
2019-03-28T19:30:01.121Z,95738.36
2019-03-28T19:32:31.246Z,95740.14
2019-03-28T19:35:03.400Z,95743.72
2019-03-28T19:37:33.396Z,95742.41
2019-03-28T19:40:06.761Z,95747.95
2019-03-28T19:42:35.350Z,95753.18
2019-03-28T19:45:05.894Z,95747.80
2019-03-28T19:47:38.165Z,95747.16
2019-03-28T19:50:12.950Z,95753.17
2019-03-28T19:52:42.999Z,95754.98
2019-03-28T19:55:15.919Z,95753.50
2019-03-28T19:57:45.978Z,95750.56
2019-03-28T20:00:16.372Z,95753.36
2019-03-28T20:02:46.439Z,95755.15
2019-03-28T20:05:16.530Z,95757.42
2019-03-28T20:07:46.604Z,95760.36
2019-03-28T20:10:17.891Z,95762.81
2019-03-28T20:12:48.650Z,95762.16
2019-03-28T20:15:18.881Z,95761.98
2019-03-28T20:17:48.932Z,95765.92
2019-03-28T20:20:19.454Z,95764.25
2019-03-28T20:22:49.483Z,95752.17
2019-03-28T20:25:19.519Z,95753.48
2019-03-28T20:27:49.904Z,95759.01
2019-03-28T20:30:20.611Z,95755.40
2019-03-28T20:32:50.658Z,95750.34
2019-03-28T20:35:21.834Z,95746.73
2019-03-28T20:37:52.065Z,95747.70
2019-03-28T20:40:22.198Z,95748.19
2019-03-28T20:42:52.250Z,95757.69
2019-03-28T20:45:22.408Z,95760.44
2019-03-28T20:47:52.445Z,95753.61
2019-03-28T20:50:24.822Z,95756.71
2019-03-28T20:52:54.880Z,95761.59
2019-03-28T20:55:25.624Z,95763.05
2019-03-28T20:57:55.815Z,95764.54
2019-03-28T21:00:43.573Z,95762.55
2019-03-28T21:03:16.810Z,95763.81
2019-03-28T21:05:46.947Z,95765.42
2019-03-28T21:08:17.060Z,95761.52
2019-03-28T21:10:47.283Z,95761.52
2019-03-28T21:13:17.510Z,95767.25
2019-03-28T21:15:47.561Z,95765.77
2019-03-28T21:18:17.600Z,95763.79
2019-03-28T21:20:48.042Z,95765.39
2019-03-28T21:23:18.073Z,95769.31
2019-03-28T21:25:48.935Z,95773.22
2019-03-28T21:28:19.135Z,95780.56
2019-03-28T21:30:49.693Z,95780.23
2019-03-28T21:33:19.888Z,95780.05
2019-03-28T21:35:49.948Z,95787.53
2019-03-28T21:38:20.044Z,95787.84
2019-03-28T21:40:50.141Z,95784.89
2019-03-28T21:43:20.291Z,95781.95
2019-03-28T21:45:50.333Z,95785.86
2019-03-28T21:48:20.372Z,95784.52
2019-03-28T21:50:50.418Z,95777.66
2019-03-28T21:53:20.473Z,95778.95
2019-03-28T21:55:55.485Z,95781.72
2019-03-28T21:58:22.452Z,95780.04
2019-03-28T22:00:52.492Z,95787.37
2019-03-28T22:03:22.510Z,95787.19
2019-03-28T22:05:52.519Z,95779.17
2019-03-28T22:08:22.523Z,95781.58
2019-03-28T22:10:52.536Z,95782.35
2019-03-28T22:13:22.524Z,95782.63
2019-03-28T22:15:53.543Z,95785.53
2019-03-28T22:18:23.572Z,95785.16
2019-03-28T22:20:53.592Z,95787.70
2019-03-28T22:23:23.623Z,95795.36
2019-03-28T22:25:53.678Z,95797.96
2019-03-28T22:28:23.772Z,95794.83
2019-03-28T22:30:53.788Z,95798.63
2019-03-28T22:33:23.802Z,95801.98
2019-03-28T22:35:53.813Z,95803.83
2019-03-28T22:38:23.809Z,95802.80
2019-03-28T22:40:53.834Z,95805.66
2019-03-28T22:43:23.878Z,95805.41
2019-03-28T22:45:53.962Z,95810.88
2019-03-28T22:48:23.988Z,95815.71
2019-03-28T22:50:54.062Z,95820.44
2019-03-28T22:53:24.105Z,95815.66
2019-03-28T22:55:54.098Z,95818.23
2019-03-28T22:58:24.148Z,95819.34
2019-03-28T23:00:56.590Z,95823.59
2019-03-28T23:03:26.641Z,95819.00
2019-03-28T23:05:56.908Z,95821.72
2019-03-28T23:08:27.213Z,95824.73
2019-03-28T23:10:57.248Z,95825.83
2019-03-28T23:13:27.335Z,95829.02
2019-03-28T23:15:57.336Z,95821.22
2019-03-28T23:18:27.349Z,95824.70
2019-03-28T23:20:57.409Z,95826.62
2019-03-28T23:23:27.434Z,95829.73
2019-03-28T23:25:57.440Z,95834.45
2019-03-28T23:28:27.489Z,95832.06
2019-03-28T23:30:57.532Z,95835.89
2019-03-28T23:33:27.548Z,95824.91
2019-03-28T23:35:57.601Z,95823.98
2019-03-28T23:38:27.608Z,95825.92
2019-03-28T23:40:57.640Z,95829.47
2019-03-28T23:43:27.678Z,95831.70
2019-03-28T23:45:57.713Z,95823.77
2019-03-28T23:48:27.763Z,95823.77
2019-03-28T23:50:58.711Z,95822.61
2019-03-28T23:53:29.759Z,95825.06
2019-03-28T23:55:59.799Z,95830.19
2019-03-28T23:58:29.800Z,95831.49
